Flight Track Log - Related Links

Times and Time Zones

All times are in EDT time to prevent confusion due to time zone crossing. See the TAM8042 flight status page for this flight to view local times or setup timezone preferences in your user account.

Time Position Orientation Groundspeed Altitude Reporting Facility
EDT Latitude Longitude Course Direction KTS MPH feet Rate Location/Type
Sun 10:30:18 PM -15.8790 -47.9060 125° Southeast 183 211 3,500  Level FlightAware ADS-B
Sun 10:30:38 PM -15.8780 -47.8900 86° East 159 183 4,700 2,400 Climbing FlightAware ADS-B
Sun 10:31:08 PM -15.8840 -47.8690 107° East 170 196 5,500 1,320 Climbing FlightAware ADS-B
Sun 10:31:28 PM -15.8970 -47.8580 141° Southeast 191 220 5,800 1,029 Climbing FlightAware ADS-B
Sun 10:31:43 PM -15.9090 -47.8500 147° Southeast 206 237 6,100 1,714 Climbing FlightAware ADS-B
Sun 10:32:03 PM -15.9250 -47.8390 147° Southeast 206 237 6,800 1,886 Climbing FlightAware ADS-B
Sun 10:32:18 PM -15.9340 -47.8280 130° Southeast 200 230 7,200 1,500 Climbing FlightAware ADS-B
Sun 10:32:23 PM -15.9350 -47.8230 102° East 198 228 7,300 1,200 Climbing FlightAware ADS-B
Sun 10:32:28 PM -15.9360 -47.8190 105° East 197 227 7,400 1,680 Climbing FlightAware ADS-B
Sun 10:32:48 PM -15.9270 -47.8020 61° Northeast 202 232 8,000 1,800 Climbing FlightAware ADS-B
Sun 10:32:58 PM -15.9180 -47.7980 23° Northeast 209 241 8,300 1,200 Climbing FlightAware ADS-B
Sun 10:33:08 PM -15.9090 -47.7970 North 219 252 8,400 800 Climbing FlightAware ADS-B
Sun 10:33:28 PM -15.8880 -47.7940 North 244 281 8,700 900 Climbing FlightAware ADS-B
Sun 10:33:48 PM -15.8640 -47.7910 North 268 308 9,000 1,350 Climbing FlightAware ADS-B
Sun 10:34:08 PM -15.8380 -47.7880 North 283 326 9,600 1,636 Climbing FlightAware ADS-B
Sun 10:34:43 PM -15.7900 -47.7820 North 310 357 10,500 1,371 Climbing FlightAware ADS-B
Sun 10:35:18 PM -15.7370 -47.7770 North 342 394 11,200 1,662 Climbing FlightAware ADS-B
Sun 10:35:48 PM -15.6890 -47.7820 354° North 363 418 12,300 2,585 Climbing FlightAware ADS-B
Sun 10:36:23 PM -15.6390 -47.8130 329° Northwest 362 417 14,000 2,400 Climbing FlightAware ADS-B
Sun 10:37:03 PM -15.5790 -47.8500 329° Northwest 374 430 15,300 2,000 Climbing FlightAware ADS-B
Sun 10:37:38 PM -15.5260 -47.8820 330° Northwest 378 435 16,500 2,113 Climbing FlightAware ADS-B
Sun 10:38:14 PM -15.4730 -47.9130 331° Northwest 379 436 17,800 2,143 Climbing FlightAware ADS-B
Sun 10:38:48 PM -15.4190 -47.9450 330° Northwest 381 438 19,000 2,174 Climbing FlightAware ADS-B
Sun 10:39:23 PM -15.3660 -47.9770 330° Northwest 378 435 20,300 1,971 Climbing FlightAware ADS-B
Sun 10:39:58 PM -15.3130 -48.0080 331° Northwest 381 438 21,300 1,543 Climbing FlightAware ADS-B
Sun 10:40:33 PM -15.2580 -48.0410 330° Northwest 388 447 22,100 1,371 Climbing FlightAware ADS-B
Sun 10:41:08 PM -15.2050 -48.0720 331° Northwest 392 451 22,900 1,543 Climbing FlightAware ADS-B
Sun 10:41:43 PM -15.1490 -48.1060 330° Northwest 391 450 23,900 1,629 Climbing FlightAware ADS-B
Sun 10:42:18 PM -15.0930 -48.1390 330° Northwest 394 453 24,800 1,457 Climbing FlightAware ADS-B
Sun 10:42:53 PM -15.0370 -48.1720 330° Northwest 397 457 25,600 1,286 Climbing FlightAware ADS-B
Sun 10:43:28 PM -14.9810 -48.2050 330° Northwest 403 464 26,300 1,286 Climbing FlightAware ADS-B
Sun 10:44:03 PM -14.9240 -48.2390 330° Northwest 405 466 27,100 1,286 Climbing FlightAware ADS-B
Sun 10:44:38 PM -14.8670 -48.2730 330° Northwest 407 468 27,800 1,200 Climbing FlightAware ADS-B
Sun 10:45:13 PM -14.8110 -48.3050 331° Northwest 408 470 28,500 1,151 Climbing FlightAware ADS-B
Sun 10:45:51 PM -14.7460 -48.3440 330° Northwest 410 472 29,200 1,043 Climbing FlightAware ADS-B
Sun 10:46:22 PM -14.6960 -48.3730 331° Northwest 415 478 29,700 1,015 Climbing FlightAware ADS-B
Sun 10:46:56 PM -14.6370 -48.4080 330° Northwest 418 481 30,300 973 Climbing FlightAware ADS-B
Sun 10:47:36 PM -14.5710 -48.4470 330° Northwest 423 487 30,900 857 Climbing FlightAware ADS-B
Sun 10:48:06 PM -14.5190 -48.4780 330° Northwest 426 490 31,300 831 Climbing FlightAware ADS-B
Sun 10:48:41 PM -14.4590 -48.5130 331° Northwest 429 494 31,800 880 Climbing FlightAware ADS-B
Sun 10:49:21 PM -14.3890 -48.5540 330° Northwest 431 496 32,400 880 Climbing FlightAware ADS-B
Sun 10:49:56 PM -14.3280 -48.5900 330° Northwest 435 501 32,900 738 Climbing FlightAware ADS-B
Sun 10:50:26 PM -14.2760 -48.6210 330° Northwest 438 504 33,200 771 Climbing FlightAware ADS-B
Sun 10:51:06 PM -14.2040 -48.6630 331° Northwest 439 505 33,800 960 Climbing FlightAware ADS-B
Sun 10:51:41 PM -14.1440 -48.6980 331° Northwest 436 502 34,400 686 Climbing FlightAware ADS-B
Sun 10:52:16 PM -14.0900 -48.7300 330° Northwest 435 501 34,600 167 Climbing FlightAware ADS-B
Sun 10:52:53 PM -14.0350 -48.7630 330° Northwest 435 501 34,600 1,040 Level FlightAware ADS-B
Sun 10:53:31 PM -13.9580 -48.8080 330° Northwest 433 498 35,900 1,295 Climbing FlightAware ADS-B
Sun 10:54:21 PM -13.8640 -48.8620 331° Northwest 433 498 36,500 483 Climbing FlightAware ADS-B
Sun 10:54:58 PM -13.8110 -48.8940 330° Northwest 433 498 36,600 494 Climbing FlightAware ADS-B
Sun 10:55:46 PM -13.7270 -48.9430 330° Northwest 433 498 37,200 429 Climbing FlightAware ADS-B
Sun 10:56:22 PM -13.6740 -48.9740 330° Northwest 433 498 37,200  Level FlightAware ADS-B
Sun 10:56:58 PM -13.6210 -49.0060 330° Northwest 433 498 37,200  Level FlightAware ADS-B
Sun 10:57:35 PM -13.5670 -49.0380 330° Northwest 433 498 37,200  Level FlightAware ADS-B
Sun 10:58:11 PM -13.5140 -49.0700 330° Northwest 433 498 37,200  Level FlightAware ADS-B
Sun 10:58:47 PM -13.4600 -49.1010 331° Northwest 433 498 37,200  Level FlightAware ADS-B
Sun 10:59:24 PM -13.4060 -49.1340 329° Northwest 433 498 37,200  Level FlightAware ADS-B
Sun 11:00:00 PM -13.3530 -49.1650 330° Northwest 433 498 37,200  Level FlightAware ADS-B
Sun 11:00:36 PM -13.3000 -49.1970 330° Northwest 433 498 37,200  Level FlightAware ADS-B
Sun 11:01:12 PM -13.2470 -49.2280 330° Northwest 433 498 37,200  Level FlightAware ADS-B
Sun 11:01:48 PM -13.1940 -49.2600 330° Northwest 433 498 37,200  Level FlightAware ADS-B
Sun 11:02:24 PM -13.1400 -49.2910 331° Northwest 433 498 37,200  Level FlightAware ADS-B
Sun 11:03:01 PM -13.0860 -49.3230 330° Northwest 433 498 37,200  Level FlightAware ADS-B
Sun 11:03:37 PM -13.0330 -49.3550 330° Northwest 433 498 37,200  Level FlightAware ADS-B
Sun 11:04:13 PM -12.9800 -49.3860 330° Northwest 433 498 37,200  Level FlightAware ADS-B
Sun 11:04:50 PM -12.9250 -49.4190 330° Northwest 433 498 37,200 15 Level FlightAware ADS-B
Sun 11:07:00 PM -12.7224 -49.5797 322° Northwest  Level Estimated
Sun 11:08:00 PM -12.6288 -49.6538 322° Northwest  Level Estimated
Sun 11:09:00 PM -12.5352 -49.7279 322° Northwest  Level Estimated
Sun 11:10:00 PM -12.4416 -49.8018 322° Northwest  Level Estimated
Sun 11:11:00 PM -12.3480 -49.8758 322° Northwest  Level Estimated
Sun 11:12:00 PM -12.2544 -49.9496 322° Northwest  Level Estimated
Sun 11:13:00 PM -12.1607 -50.0235 322° Northwest  Level Estimated
Sun 11:14:00 PM -12.0670 -50.0973 322° Northwest  Level Estimated
Sun 11:15:00 PM -11.9733 -50.1710 322° Northwest  Level Estimated
Sun 11:16:00 PM -11.8796 -50.2447 322° Northwest  Level Estimated
Sun 11:17:00 PM -11.7859 -50.3183 322° Northwest  Level Estimated
Sun 11:18:00 PM -11.6921 -50.3918 322° Northwest  Level Estimated
Sun 11:19:00 PM -11.5983 -50.4654 322° Northwest  Level Estimated
Sun 11:20:00 PM -11.5045 -50.5388 322° Northwest  Level Estimated
Sun 11:21:00 PM -11.4107 -50.6123 323° Northwest  Level Estimated
Sun 11:22:00 PM -11.3169 -50.6856 323° Northwest  Level Estimated
Sun 11:23:00 PM -11.2230 -50.7589 323° Northwest  Level Estimated
Sun 11:24:00 PM -11.1292 -50.8322 323° Northwest  Level Estimated
Sun 11:25:00 PM -11.0353 -50.9055 323° Northwest  Level Estimated
Sun 11:26:00 PM -10.9414 -50.9786 323° Northwest  Level Estimated
Sun 11:27:00 PM -10.8475 -51.0518 323° Northwest  Level Estimated
Sun 11:28:00 PM -10.7535 -51.1249 323° Northwest  Level Estimated
Sun 11:29:00 PM -10.6596 -51.1979 323° Northwest  Level Estimated
Sun 11:30:00 PM -10.5656 -51.2709 323° Northwest  Level Estimated
Sun 11:31:00 PM -10.4716 -51.3439 323° Northwest  Level Estimated
Sun 11:32:00 PM -10.3776 -51.4168 323° Northwest  Level Estimated
Sun 11:33:00 PM -10.2836 -51.4897 323° Northwest  Level Estimated
Sun 11:34:00 PM -10.1895 -51.5625 323° Northwest  Level Estimated
Sun 11:35:00 PM -10.0955 -51.6353 323° Northwest  Level Estimated
Sun 11:36:00 PM -10.0014 -51.7080 323° Northwest  Level Estimated
Sun 11:37:00 PM -9.9073 -51.7807 323° Northwest  Level Estimated
Sun 11:38:00 PM -9.8132 -51.8534 323° Northwest  Level Estimated
Sun 11:39:00 PM -9.7191 -51.9260 323° Northwest  Level Estimated
Sun 11:40:00 PM -9.6250 -51.9986 323° Northwest  Level Estimated
Sun 11:41:00 PM -9.5308 -52.0711 323° Northwest  Level Estimated
Sun 11:42:00 PM -9.4367 -52.1436 323° Northwest  Level Estimated
Sun 11:43:00 PM -9.3425 -52.2160 323° Northwest  Level Estimated
Sun 11:44:00 PM -9.2483 -52.2885 323° Northwest  Level Estimated
Sun 11:45:00 PM -9.1541 -52.3608 323° Northwest  Level Estimated
Sun 11:46:00 PM -9.0599 -52.4332 323° Northwest  Level Estimated
Sun 11:47:00 PM -8.9656 -52.5055 323° Northwest  Level Estimated
Sun 11:48:00 PM -8.8714 -52.5777 323° Northwest  Level Estimated
Sun 11:49:00 PM -8.7771 -52.6500 323° Northwest  Level Estimated
Sun 11:50:00 PM -8.6828 -52.7222 323° Northwest  Level Estimated
Sun 11:51:00 PM -8.5885 -52.7943 323° Northwest  Level Estimated
Sun 11:52:00 PM -8.4943 -52.8664 323° Northwest  Level Estimated
Sun 11:53:00 PM -8.3999 -52.9385 323° Northwest  Level Estimated
Sun 11:54:00 PM -8.3056 -53.0106 323° Northwest  Level Estimated
Sun 11:55:00 PM -8.2113 -53.0826 323° Northwest  Level Estimated
Sun 11:56:00 PM -8.1169 -53.1545 323° Northwest  Level Estimated
Sun 11:57:00 PM -8.0225 -53.2265 323° Northwest  Level Estimated
Sun 11:58:00 PM -7.9282 -53.2984 323° Northwest  Level Estimated
Sun 11:59:00 PM -7.8338 -53.3703 323° Northwest  Level Estimated
Mon 12:00:00 AM -7.7394 -53.4421 323° Northwest  Level Estimated
Mon 12:01:00 AM -7.6449 -53.5139 323° Northwest  Level Estimated
Mon 12:02:00 AM -7.5505 -53.5857 323° Northwest  Level Estimated
Mon 12:03:00 AM -7.4561 -53.6575 323° Northwest  Level Estimated
Mon 12:04:00 AM -7.3616 -53.7292 323° Northwest  Level Estimated
Mon 12:05:00 AM -7.2672 -53.8009 323° Northwest  Level Estimated
Mon 12:06:00 AM -7.1727 -53.8725 323° Northwest  Level Estimated
Mon 12:07:00 AM -7.0782 -53.9442 323° Northwest  Level Estimated
Mon 12:08:00 AM -6.9837 -54.0158 323° Northwest  Level Estimated
Mon 12:09:00 AM -6.8892 -54.0873 323° Northwest  Level Estimated
Mon 12:10:00 AM -6.7947 -54.1589 323° Northwest  Level Estimated
Mon 12:11:00 AM -6.7001 -54.2304 323° Northwest  Level Estimated
Mon 12:12:00 AM -6.6056 -54.3019 323° Northwest  Level Estimated
Mon 12:13:00 AM -6.5111 -54.3733 323° Northwest  Level Estimated
Mon 12:14:00 AM -6.4165 -54.4448 323° Northwest  Level Estimated
Mon 12:15:00 AM -6.3219 -54.5162 323° Northwest  Level Estimated
Mon 12:16:00 AM -6.2273 -54.5875 323° Northwest  Level Estimated
Mon 12:17:00 AM -6.1328 -54.6589 323° Northwest  Level Estimated
Mon 12:18:00 AM -6.0381 -54.7302 323° Northwest  Level Estimated
Mon 12:19:00 AM -5.9435 -54.8015 323° Northwest  Level Estimated
Mon 12:20:00 AM -5.8489 -54.8728 323° Northwest  Level Estimated
Mon 12:21:00 AM -5.7543 -54.9440 323° Northwest  Level Estimated
Mon 12:22:00 AM -5.6597 -55.0153 323° Northwest  Level Estimated
Mon 12:23:00 AM -5.5650 -55.0865 323° Northwest  Level Estimated
Mon 12:24:00 AM -5.4704 -55.1577 323° Northwest  Level Estimated
Mon 12:25:00 AM -5.3757 -55.2288 323° Northwest  Level Estimated
Mon 12:26:00 AM -5.2810 -55.3000 323° Northwest  Level Estimated
Mon 12:27:00 AM -5.1864 -55.3711 323° Northwest  Level Estimated
Mon 12:28:00 AM -5.0917 -55.4422 323° Northwest  Level Estimated
Mon 12:29:00 AM -4.9970 -55.5133 323° Northwest  Level Estimated
Mon 12:30:00 AM -4.9023 -55.5843 323° Northwest  Level Estimated
Mon 12:31:00 AM -4.8076 -55.6554 323° Northwest  Level Estimated
Mon 12:32:00 AM -4.7129 -55.7264 323° Northwest  Level Estimated
Mon 12:33:00 AM -4.6182 -55.7974 323° Northwest  Level Estimated
Mon 12:34:00 AM -4.5234 -55.8684 323° Northwest  Level Estimated
Mon 12:35:00 AM -4.4287 -55.9393 323° Northwest  Level Estimated
Mon 12:36:00 AM -4.3339 -56.0103 323° Northwest  Level Estimated
Mon 12:37:00 AM -4.2392 -56.0812 323° Northwest  Level Estimated
Mon 12:38:00 AM -4.1444 -56.1521 323° Northwest  Level Estimated
Mon 12:39:00 AM -4.0497 -56.2230 323° Northwest  Level Estimated
Mon 12:40:00 AM -3.9549 -56.2939 323° Northwest  Level Estimated
Mon 12:41:00 AM -3.8601 -56.3647 323° Northwest  Level Estimated
Mon 12:42:00 AM -3.7654 -56.4356 323° Northwest  Level Estimated
Mon 12:43:00 AM -3.6706 -56.5064 323° Northwest  Level Estimated
Mon 12:44:00 AM -3.5758 -56.5772 323° Northwest  Level Estimated
Mon 12:45:00 AM -3.4810 -56.6480 323° Northwest  Level Estimated
Mon 12:46:00 AM -3.3862 -56.7188 323° Northwest  Level Estimated
Mon 12:47:00 AM -3.2914 -56.7895 323° Northwest  Level Estimated
Mon 12:48:00 AM -3.1965 -56.8603 323° Northwest  Level Estimated
Mon 12:49:00 AM -3.1017 -56.9310 323° Northwest  Level Estimated
Mon 12:50:00 AM -3.0069 -57.0018 323° Northwest  Level Estimated
Mon 12:51:00 AM -2.9121 -57.0725 323° Northwest  Level Estimated
Mon 12:52:00 AM -2.8173 -57.1432 323° Northwest  Level Estimated
Mon 12:53:00 AM -2.7224 -57.2138 323° Northwest  Level Estimated
Mon 12:54:00 AM -2.6276 -57.2845 323° Northwest  Level Estimated
Mon 12:55:00 AM -2.5327 -57.3552 323° Northwest  Level Estimated
Mon 12:56:00 AM -2.4379 -57.4259 323° Northwest  Level Estimated
Mon 12:57:00 AM -2.3430 -57.4965 323° Northwest  Level Estimated
Mon 12:58:00 AM -2.2482 -57.5672 323° Northwest  Level Estimated
Mon 12:59:00 AM -2.1533 -57.6378 323° Northwest  Level Estimated
Mon 01:00:00 AM -2.0585 -57.7084 323° Northwest  Level Estimated
Mon 01:01:00 AM -1.9636 -57.7790 323° Northwest  Level Estimated
Mon 01:02:00 AM -1.8687 -57.8496 323° Northwest  Level Estimated
Mon 01:03:00 AM -1.7739 -57.9202 323° Northwest  Level Estimated
Mon 01:04:00 AM -1.6790 -57.9908 323° Northwest  Level Estimated
Mon 01:05:00 AM -1.5841 -58.0614 323° Northwest  Level Estimated
Mon 01:06:00 AM -1.4892 -58.1320 323° Northwest  Level Estimated
Mon 01:07:00 AM -1.3944 -58.2025 323° Northwest  Level Estimated
Mon 01:08:00 AM -1.2995 -58.2731 323° Northwest  Level Estimated
Mon 01:09:00 AM -1.2046 -58.3437 323° Northwest  Level Estimated
Mon 01:10:00 AM -1.1097 -58.4142 323° Northwest  Level Estimated
Mon 01:11:00 AM -1.0148 -58.4848 323° Northwest  Level Estimated
Mon 01:12:00 AM -0.9199 -58.5553 323° Northwest  Level Estimated
Mon 01:13:00 AM -0.8250 -58.6259 323° Northwest  Level Estimated
Mon 01:14:00 AM -0.7302 -58.6964 323° Northwest  Level Estimated
Mon 01:15:00 AM -0.6353 -58.7669 323° Northwest  Level Estimated
Mon 01:16:00 AM -0.5404 -58.8375 323° Northwest  Level Estimated
Mon 01:17:00 AM -0.4455 -58.9080 323° Northwest  Level Estimated
Mon 01:18:00 AM -0.3506 -58.9785 323° Northwest  Level Estimated
Mon 01:19:00 AM -0.2557 -59.0491 323° Northwest  Level Estimated
Mon 01:20:00 AM -0.1608 -59.1196 323° Northwest  Level Estimated
Mon 01:21:00 AM -0.0659 -59.1901 323° Northwest  Level Estimated
Mon 01:22:00 AM 0.0290 -59.2607 323° Northwest  Level Estimated
Mon 01:23:00 AM 0.1239 -59.3312 323° Northwest  Level Estimated
Mon 01:24:00 AM 0.2188 -59.4017 323° Northwest  Level Estimated
Mon 01:25:00 AM 0.3137 -59.4722 323° Northwest  Level Estimated
Mon 01:26:00 AM 0.4086 -59.5428 323° Northwest  Level Estimated
Mon 01:27:00 AM 0.5035 -59.6133 323° Northwest  Level Estimated
Mon 01:28:00 AM 0.5984 -59.6838 323° Northwest  Level Estimated
Mon 01:29:00 AM 0.6933 -59.7544 323° Northwest  Level Estimated
Mon 01:30:00 AM 0.7882 -59.8249 323° Northwest  Level Estimated
Mon 01:31:00 AM 0.8831 -59.8955 323° Northwest  Level Estimated
Mon 01:32:00 AM 0.9779 -59.9660 323° Northwest  Level Estimated
Mon 01:33:00 AM 1.0728 -60.0365 323° Northwest  Level Estimated
Mon 01:34:00 AM 1.1677 -60.1071 323° Northwest  Level Estimated
Mon 01:35:00 AM 1.2626 -60.1777 323° Northwest  Level Estimated
Mon 01:36:00 AM 1.3575 -60.2482 323° Northwest  Level Estimated
Mon 01:37:00 AM 1.4524 -60.3188 323° Northwest  Level Estimated
Mon 01:38:00 AM 1.5472 -60.3894 323° Northwest  Level Estimated
Mon 01:39:00 AM 1.6421 -60.4599 323° Northwest  Level Estimated
Mon 01:40:00 AM 1.7370 -60.5305 323° Northwest  Level Estimated
Mon 01:41:00 AM 1.8319 -60.6011 323° Northwest  Level Estimated
Mon 01:42:00 AM 1.9267 -60.6717 323° Northwest  Level Estimated
Mon 01:43:00 AM 2.0216 -60.7423 323° Northwest  Level Estimated
Mon 01:44:00 AM 2.1165 -60.8129 323° Northwest  Level Estimated
Mon 01:45:00 AM 2.2113 -60.8836 323° Northwest  Level Estimated
Mon 01:46:00 AM 2.3062 -60.9542 323° Northwest  Level Estimated
Mon 01:47:00 AM 2.4010 -61.0249 323° Northwest  Level Estimated
Mon 01:48:00 AM 2.4959 -61.0955 323° Northwest  Level Estimated
Mon 01:49:00 AM 2.5907 -61.1662 323° Northwest  Level Estimated
Mon 01:50:00 AM 2.6856 -61.2369 323° Northwest  Level Estimated
Mon 01:51:00 AM 2.7804 -61.3076 323° Northwest  Level Estimated
Mon 01:52:00 AM 2.8752 -61.3783 323° Northwest  Level Estimated
Mon 01:53:00 AM 2.9701 -61.4490 323° Northwest  Level Estimated
Mon 01:54:00 AM 3.0649 -61.5197 323° Northwest  Level Estimated
Mon 01:55:00 AM 3.1597 -61.5904 323° Northwest  Level Estimated
Mon 01:56:00 AM 3.2545 -61.6612 323° Northwest  Level Estimated
Mon 01:57:00 AM 3.3493 -61.7319 323° Northwest  Level Estimated
Mon 01:58:00 AM 3.4441 -61.8027 323° Northwest  Level Estimated
Mon 01:59:00 AM 3.5389 -61.8735 323° Northwest  Level Estimated
Mon 02:00:00 AM 3.6337 -61.9443 323° Northwest  Level Estimated
Mon 02:01:00 AM 3.7285 -62.0151 323° Northwest  Level Estimated
Mon 02:02:00 AM 3.8233 -62.0859 323° Northwest  Level Estimated
Mon 02:03:00 AM 3.9181 -62.1568 323° Northwest  Level Estimated
Mon 02:04:00 AM 4.0128 -62.2277 323° Northwest  Level Estimated
Mon 02:05:00 AM 4.1076 -62.2985 323° Northwest  Level Estimated
Mon 02:06:00 AM 4.2024 -62.3694 323° Northwest  Level Estimated
Mon 02:06:08 AM 7.7310 -59.3530 323° Northwest 449 517 40,000  Level FlightAware ADS-B
Mon 02:06:50 AM 7.7920 -59.3940 326° Northwest 449 517 40,000  Level FlightAware ADS-B
Mon 02:07:26 AM 7.8650 -59.4410 327° Northwest 452 520 40,000  Level FlightAware ADS-B
Mon 02:07:58 AM 7.9240 -59.4800 327° Northwest 454 522 40,000  Level FlightAware ADS-B
Mon 02:08:28 AM 7.9760 -59.5140 327° Northwest 454 522 40,000  Level FlightAware ADS-B
Mon 02:09:10 AM 8.0490 -59.5620 327° Northwest 454 522 40,000  Level FlightAware ADS-B
Mon 02:09:46 AM 8.1140 -59.6050 327° Northwest 453 521 40,000  Level FlightAware ADS-B
Mon 02:10:28 AM 8.1870 -59.6530 327° Northwest 453 521 40,000  Level FlightAware ADS-B
Mon 02:10:57 AM 8.2380 -59.6870 327° Northwest 453 521 40,000  Level FlightAware ADS-B
Mon 02:11:46 AM 8.3250 -59.7440 327° Northwest 451 519 40,000  Level FlightAware ADS-B
Mon 02:12:22 AM 8.3880 -59.7860 327° Northwest 451 519 40,000  Level FlightAware ADS-B
Mon 02:13:02 AM 8.4560 -59.8310 327° Northwest 450 518 40,000  Level FlightAware ADS-B
Mon 02:13:38 AM 8.5200 -59.8730 327° Northwest 450 518 40,000  Level FlightAware ADS-B
Mon 02:14:14 AM 8.5820 -59.9150 326° Northwest 449 517 40,000  Level FlightAware ADS-B
Mon 02:14:46 AM 8.6390 -59.9520 327° Northwest 449 517 40,000  Level FlightAware ADS-B
Mon 02:15:22 AM 8.7020 -59.9940 327° Northwest 448 516 40,000  Level FlightAware ADS-B
Mon 02:15:58 AM 8.7630 -60.0350 326° Northwest 448 516 40,000  Level FlightAware ADS-B
Mon 02:16:32 AM 8.8230 -60.0750 327° Northwest 447 514 40,000  Level FlightAware ADS-B
Mon 02:17:08 AM 8.8860 -60.1160 327° Northwest 448 516 40,000  Level FlightAware ADS-B
Mon 02:17:44 AM 8.9470 -60.1610 324° Northwest 452 520 40,000  Level FlightAware ADS-B
Mon 02:18:16 AM 8.9990 -60.2030 321° Northwest 453 521 40,000  Level FlightAware ADS-B
Mon 02:18:51 AM 9.0530 -60.2470 321° Northwest 453 521 40,000  Level FlightAware ADS-B
Mon 02:19:28 AM 9.1170 -60.2980 322° Northwest 452 520 40,000  Level FlightAware ADS-B
Mon 02:20:04 AM 9.1760 -60.3460 321° Northwest 450 518 40,000  Level FlightAware ADS-B
Mon 02:20:36 AM 9.2270 -60.3870 322° Northwest 448 516 40,000  Level FlightAware ADS-B
Mon 02:21:12 AM 9.2860 -60.4340 322° Northwest 448 516 40,000  Level FlightAware ADS-B
Mon 02:21:48 AM 9.3450 -60.4820 321° Northwest 449 517 40,000  Level FlightAware ADS-B
Mon 02:22:24 AM 9.4040 -60.5300 321° Northwest 447 514 40,000  Level FlightAware ADS-B
Mon 02:22:56 AM 9.4550 -60.5710 322° Northwest 446 513 40,000  Level FlightAware ADS-B
Mon 02:23:34 AM 9.5160 -60.6210 321° Northwest 445 512 40,000  Level FlightAware ADS-B
Mon 02:24:10 AM 9.5740 -60.6670 322° Northwest 445 512 40,000  Level FlightAware ADS-B
Mon 02:24:42 AM 9.6260 -60.7090 321° Northwest 446 513 40,000  Level FlightAware ADS-B
Mon 02:25:18 AM 9.6850 -60.7570 321° Northwest 445 512 40,000  Level FlightAware ADS-B
Mon 02:25:54 AM 9.7420 -60.8040 321° Northwest 446 513 40,000  Level FlightAware ADS-B
Mon 02:26:27 AM 9.7940 -60.8460 321° Northwest 448 516 40,000  Level FlightAware ADS-B
Mon 02:27:04 AM 9.8550 -60.8950 322° Northwest 448 516 40,000  Level FlightAware ADS-B
Mon 02:27:40 AM 9.9140 -60.9430 321° Northwest 448 516 40,000  Level FlightAware ADS-B
Mon 02:28:12 AM 9.9660 -60.9850 321° Northwest 448 516 40,000  Level FlightAware ADS-B
Mon 02:28:48 AM 10.0240 -61.0320 321° Northwest 448 516 40,000  Level FlightAware ADS-B
Mon 02:29:24 AM 10.0830 -61.0800 321° Northwest 448 516 40,000  Level FlightAware ADS-B
Mon 02:29:57 AM 10.1350 -61.1220 322° Northwest 446 513 40,000  Level FlightAware ADS-B
Mon 02:30:32 AM 10.1910 -61.1680 321° Northwest 446 513 40,000  Level FlightAware ADS-B
Mon 02:31:10 AM 10.2530 -61.2180 322° Northwest 445 512 40,000  Level FlightAware ADS-B
Mon 02:31:42 AM 10.3050 -61.2610 321° Northwest 446 513 40,000  Level FlightAware ADS-B
Mon 02:32:18 AM 10.3630 -61.3080 321° Northwest 447 514 40,000  Level FlightAware ADS-B
Mon 02:32:54 AM 10.4210 -61.3550 321° Northwest 448 516 40,000  Level FlightAware ADS-B
Mon 02:33:30 AM 10.4810 -61.4010 323° Northwest 446 513 40,000  Level FlightAware ADS-B
Mon 02:34:02 AM 10.5370 -61.4350 329° Northwest 444 511 40,000  Level FlightAware ADS-B
Mon 02:34:38 AM 10.6020 -61.4730 330° Northwest 445 512 40,000  Level FlightAware ADS-B
Mon 02:35:14 AM 10.6650 -61.5110 329° Northwest 445 512 40,000  Level FlightAware ADS-B
Mon 02:35:50 AM 10.7290 -61.5490 330° Northwest 444 511 40,000  Level FlightAware ADS-B
Mon 02:36:22 AM 10.7870 -61.5830 330° Northwest 444 511 40,000  Level FlightAware ADS-B
Mon 02:36:58 AM 10.8510 -61.6220 329° Northwest 445 512 40,000  Level FlightAware ADS-B
Mon 02:37:34 AM 10.9130 -61.6590 330° Northwest 445 512 40,000  Level FlightAware ADS-B
Mon 02:38:08 AM 10.9750 -61.6960 330° Northwest 446 513 40,000  Level FlightAware ADS-B
Mon 02:38:44 AM 11.0410 -61.7350 330° Northwest 446 513 40,000  Level FlightAware ADS-B
Mon 02:39:19 AM 11.1010 -61.7710 330° Northwest 448 516 40,000  Level FlightAware ADS-B
Mon 02:39:52 AM 11.1610 -61.8070 330° Northwest 448 516 40,000  Level FlightAware ADS-B
Mon 02:40:28 AM 11.2260 -61.8460 330° Northwest 448 516 40,000  Level FlightAware ADS-B
Mon 02:41:04 AM 11.2910 -61.8850 330° Northwest 447 514 40,000  Level FlightAware ADS-B
Mon 02:41:36 AM 11.3480 -61.9190 330° Northwest 448 516 40,000  Level FlightAware ADS-B
Mon 02:42:12 AM 11.4120 -61.9570 330° Northwest 450 518 40,000  Level FlightAware ADS-B
Mon 02:42:48 AM 11.4770 -61.9970 329° Northwest 451 519 40,000  Level FlightAware ADS-B
Mon 02:43:24 AM 11.5420 -62.0360 330° Northwest 451 519 40,000  Level FlightAware ADS-B
Mon 02:43:56 AM 11.5980 -62.0690 330° Northwest 449 517 40,000  Level FlightAware ADS-B
Mon 02:44:32 AM 11.6640 -62.1090 329° Northwest 447 514 40,000  Level FlightAware ADS-B
Mon 02:45:08 AM 11.7280 -62.1470 330° Northwest 446 513 40,000  Level FlightAware ADS-B
Mon 02:45:45 AM 11.7930 -62.1870 329° Northwest 447 514 40,000  Level FlightAware ADS-B
Mon 02:46:18 AM 11.8530 -62.2230 330° Northwest 447 514 40,000  Level FlightAware ADS-B
Mon 02:46:54 AM 11.9170 -62.2610 330° Northwest 447 514 40,000  Level FlightAware ADS-B
Mon 02:47:27 AM 11.9750 -62.2960 329° Northwest 448 516 40,000  Level FlightAware ADS-B
Mon 02:48:02 AM 12.0400 -62.3350 330° Northwest 450 518 40,000  Level FlightAware ADS-B
Mon 02:48:38 AM 12.1040 -62.3740 329° Northwest 449 517 40,000  Level FlightAware ADS-B
Mon 02:49:14 AM 12.1680 -62.4130 329° Northwest 447 514 40,000  Level FlightAware ADS-B
Mon 02:49:46 AM 12.2250 -62.4470 330° Northwest 446 513 40,000  Level FlightAware ADS-B
Mon 02:50:22 AM 12.2910 -62.4870 329° Northwest 445 512 40,000  Level FlightAware ADS-B
Mon 02:50:58 AM 12.3510 -62.5230 330° Northwest 445 512 40,000  Level FlightAware ADS-B
Mon 02:51:37 AM 12.3680 -62.5330 330° Northwest 444 511 40,000  Level FlightAware ADS-B
Mon 02:52:15 AM 12.4270 -62.5690 329° Northwest 444 511 40,000  Level FlightAware ADS-B
Mon 02:52:52 AM 12.5560 -62.6470 329° Northwest 445 512 40,000  Level FlightAware ADS-B
Mon 02:53:24 AM 12.6120 -62.6810 329° Northwest 445 512 40,000  Level FlightAware ADS-B
Mon 02:53:59 AM 12.6750 -62.7200 329° Northwest 444 511 40,000  Level FlightAware ADS-B
Mon 02:54:33 AM 12.7350 -62.7560 330° Northwest 444 511 40,000  Level FlightAware ADS-B
Mon 02:55:06 AM 12.7900 -62.7890 330° Northwest 443 510 40,000  Level FlightAware ADS-B
Mon 02:55:58 AM 12.8830 -62.8460 329° Northwest 443 510 40,000  Level FlightAware ADS-B
Mon 02:56:37 AM 12.9410 -62.8820 329° Northwest 443 510 40,000  Level FlightAware ADS-B
Mon 02:57:15 AM 12.9980 -62.9170 329° Northwest 443 510 40,000  Level FlightAware ADS-B
Mon 02:57:51 AM 13.0520 -62.9500 329° Northwest 443 510 40,000  Level FlightAware ADS-B
Mon 02:58:27 AM 13.1060 -62.9830 329° Northwest 443 510 40,000  Level FlightAware ADS-B
Mon 02:59:04 AM 13.1610 -63.0170 329° Northwest 443 510 40,000  Level FlightAware ADS-B
Mon 02:59:38 AM 13.2120 -63.0490 329° Northwest 443 510 40,000  Level FlightAware ADS-B
Mon 03:00:14 AM 13.2650 -63.0820 329° Northwest 443 510 40,000  Level FlightAware ADS-B
Mon 03:00:50 AM 13.3190 -63.1150 329° Northwest 443 510 40,000  Level FlightAware ADS-B
Mon 03:01:26 AM 13.3730 -63.1480 329° Northwest 443 510 40,000  Level FlightAware ADS-B
Mon 03:02:02 AM 13.4270 -63.1810 329° Northwest 443 510 40,000  Level FlightAware ADS-B
Mon 03:02:39 AM 13.4820 -63.2150 329° Northwest 443 510 40,000  Level FlightAware ADS-B
Mon 03:03:15 AM 13.5360 -63.2490 329° Northwest 443 510 40,000  Level FlightAware ADS-B
Mon 03:03:51 AM 13.5900 -63.2820 329° Northwest 443 510 40,000  Level FlightAware ADS-B
Mon 03:04:27 AM 13.6430 -63.3150 329° Northwest 443 510 40,000  Level FlightAware ADS-B
Mon 03:05:03 AM 13.6970 -63.3480 329° Northwest 443 510 40,000  Level FlightAware ADS-B
Mon 03:05:39 AM 13.7510 -63.3820 329° Northwest 443 510 40,000  Level FlightAware ADS-B
Mon 03:08:00 AM 13.9286 -63.6020 310° West  Level Estimated
Mon 03:09:00 AM 14.0042 -63.6958 310° West  Level Estimated
Mon 03:10:00 AM 14.0797 -63.7896 310° West  Level Estimated
Mon 03:11:00 AM 14.1551 -63.8834 310° West  Level Estimated
Mon 03:12:00 AM 14.2305 -63.9774 310° West  Level Estimated
Mon 03:13:00 AM 14.3059 -64.0713 310° West  Level Estimated
Mon 03:14:00 AM 14.3813 -64.1654 310° West  Level Estimated
Mon 03:15:00 AM 14.4566 -64.2595 310° West  Level Estimated
Mon 03:16:00 AM 14.5318 -64.3537 310° West  Level Estimated
Mon 03:17:00 AM 14.6071 -64.4479 310° West  Level Estimated
Mon 03:18:00 AM 14.6823 -64.5422 310° West  Level Estimated
Mon 03:19:00 AM 14.7575 -64.6366 309° West  Level Estimated
Mon 03:20:00 AM 14.8326 -64.7310 309° West  Level Estimated
Mon 03:21:00 AM 14.9076 -64.8255 309° West  Level Estimated
Mon 03:22:00 AM 14.9827 -64.9201 309° West  Level Estimated
Mon 03:23:00 AM 15.0577 -65.0147 309° West  Level Estimated
Mon 03:24:00 AM 15.1327 -65.1094 309° West  Level Estimated
Mon 03:25:00 AM 15.2076 -65.2042 309° West  Level Estimated
Mon 03:26:00 AM 15.2825 -65.2990 309° West  Level Estimated
Mon 03:27:00 AM 15.3573 -65.3939 309° West  Level Estimated
Mon 03:28:00 AM 15.4321 -65.4889 309° West  Level Estimated
Mon 03:29:00 AM 15.5069 -65.5839 309° West  Level Estimated
Mon 03:30:00 AM 15.5816 -65.6790 309° West  Level Estimated
Mon 03:31:00 AM 15.6563 -65.7742 309° West  Level Estimated
Mon 03:32:00 AM 15.7310 -65.8694 309° West  Level Estimated
Mon 03:33:00 AM 15.8056 -65.9647 309° West  Level Estimated
Mon 03:34:00 AM 15.8801 -66.0601 309° West  Level Estimated
Mon 03:35:00 AM 15.9546 -66.1556 309° West  Level Estimated
Mon 03:36:00 AM 16.0291 -66.2511 309° West  Level Estimated
Mon 03:37:00 AM 16.1035 -66.3467 309° West  Level Estimated
Mon 03:38:00 AM 16.1779 -66.4424 309° West  Level Estimated
Mon 03:39:00 AM 16.2523 -66.5381 309° West  Level Estimated
Mon 03:40:00 AM 16.3266 -66.6339 309° West  Level Estimated
Mon 03:41:00 AM 16.4009 -66.7298 309° West  Level Estimated
Mon 03:42:00 AM 16.4751 -66.8258 309° West  Level Estimated
Mon 03:43:00 AM 16.5493 -66.9218 309° West  Level Estimated
Mon 03:44:00 AM 16.6234 -67.0179 309° West  Level Estimated
Mon 03:45:00 AM 16.6975 -67.1141 309° West  Level Estimated
Mon 03:46:00 AM 16.7715 -67.2103 309° West  Level Estimated
Mon 03:47:00 AM 16.8455 -67.3067 309° West  Level Estimated
Mon 03:48:00 AM 16.9195 -67.4031 309° West  Level Estimated
Mon 03:49:00 AM 16.9934 -67.4996 309° West  Level Estimated
Mon 03:50:00 AM 17.0672 -67.5961 309° West  Level Estimated
Mon 03:51:00 AM 17.1411 -67.6927 309° West  Level Estimated
Mon 03:52:00 AM 17.2148 -67.7895 309° West  Level Estimated
Mon 03:53:00 AM 17.2885 -67.8863 309° West  Level Estimated
Mon 03:54:00 AM 17.3622 -67.9831 309° West  Level Estimated
Mon 03:55:00 AM 17.4359 -68.0801 309° West  Level Estimated
Mon 03:56:00 AM 17.5094 -68.1771 309° West  Level Estimated
Mon 03:57:00 AM 17.5830 -68.2742 308° West  Level Estimated
Mon 03:58:00 AM 17.6565 -68.3714 308° West  Level Estimated
Mon 03:59:00 AM 17.7299 -68.4686 308° West  Level Estimated
Mon 04:00:00 AM 17.8033 -68.5660 308° West  Level Estimated
Mon 04:01:00 AM 17.8766 -68.6634 308° West  Level Estimated
Mon 04:02:00 AM 17.9499 -68.7609 308° West  Level Estimated
Mon 04:03:00 AM 18.0232 -68.8585 308° West  Level Estimated
Mon 04:04:00 AM 18.0964 -68.9561 308° West  Level Estimated
Mon 04:05:00 AM 18.1695 -69.0539 308° West  Level Estimated
Mon 04:06:00 AM 18.2426 -69.1517 308° West  Level Estimated
Mon 04:07:00 AM 18.3157 -69.2496 308° West  Level Estimated
Mon 04:08:00 AM 18.3887 -69.3476 308° West  Level Estimated
Mon 04:09:00 AM 18.4617 -69.4456 308° West  Level Estimated
Mon 04:10:00 AM 18.5345 -69.5438 308° West  Level Estimated
Mon 04:11:00 AM 18.6074 -69.6421 308° West  Level Estimated
Mon 04:12:00 AM 18.6802 -69.7404 308° West  Level Estimated
Mon 04:13:00 AM 18.7536 -69.8397 308° West  Level Estimated
Mon 04:14:00 AM 18.8270 -69.9391 308° West  Level Estimated
Mon 04:15:00 AM 18.9003 -70.0386 308° West  Level Estimated
Mon 04:16:00 AM 18.9737 -70.1384 308° West  Level Estimated
Mon 04:17:00 AM 19.0471 -70.2383 308° West  Level Estimated
Mon 04:18:00 AM 19.1204 -70.3382 308° West  Level Estimated
Mon 04:19:00 AM 19.1936 -70.4383 308° West  Level Estimated
Mon 04:20:00 AM 19.2668 -70.5384 308° West  Level Estimated
Mon 04:21:00 AM 19.3400 -70.6386 308° West  Level Estimated
Mon 04:22:00 AM 19.4130 -70.7389 308° West  Level Estimated
Mon 04:23:00 AM 19.4860 -70.8393 308° West  Level Estimated
Mon 04:24:00 AM 19.5590 -70.9398 308° West  Level Estimated
Mon 04:25:00 AM 19.6319 -71.0404 308° West  Level Estimated
Mon 04:26:00 AM 19.7048 -71.1410 308° West  Level Estimated
Mon 04:27:00 AM 19.7776 -71.2418 308° West  Level Estimated
Mon 04:28:00 AM 19.8503 -71.3426 307° West  Level Estimated
Mon 04:29:00 AM 19.9230 -71.4436 307° West  Level Estimated
Mon 04:30:00 AM 19.9956 -71.5446 307° West  Level Estimated
Mon 04:31:00 AM 20.0682 -71.6457 307° West  Level Estimated
Mon 04:32:00 AM 20.1407 -71.7470 307° West  Level Estimated
Mon 04:33:00 AM 20.2132 -71.8483 307° West  Level Estimated
Mon 04:34:00 AM 20.2856 -71.9497 307° West  Level Estimated
Mon 04:35:00 AM 20.3579 -72.0512 307° West  Level Estimated
Mon 04:36:00 AM 20.4302 -72.1528 307° West  Level Estimated
Mon 04:37:00 AM 20.5024 -72.2545 307° West  Level Estimated
Mon 04:38:00 AM 20.5746 -72.3563 307° West  Level Estimated
Mon 04:39:00 AM 20.6469 -72.4585 307° West  Level Estimated
Mon 04:40:00 AM 20.7192 -72.5608 307° West  Level Estimated
Mon 04:41:00 AM 20.7914 -72.6632 307° West  Level Estimated
Mon 04:42:00 AM 20.8636 -72.7657 307° West  Level Estimated
Mon 04:43:00 AM 20.9356 -72.8683 307° West  Level Estimated
Mon 04:44:00 AM 21.0077 -72.9710 307° West  Level Estimated
Mon 04:45:00 AM 21.0797 -73.0738 307° West  Level Estimated
Mon 04:46:00 AM 21.1516 -73.1767 307° West  Level Estimated
Mon 04:47:00 AM 21.2234 -73.2797 307° West  Level Estimated
Mon 04:48:00 AM 21.2952 -73.3828 307° West  Level Estimated
Mon 04:49:00 AM 21.3669 -73.4860 307° West  Level Estimated
Mon 04:50:00 AM 21.4387 -73.5896 307° West  Level Estimated
Mon 04:51:00 AM 21.5105 -73.6932 307° West  Level Estimated
Mon 04:52:00 AM 21.5822 -73.7970 307° West  Level Estimated
Mon 04:53:00 AM 21.6538 -73.9008 307° West  Level Estimated
Mon 04:54:00 AM 21.7254 -74.0048 307° West  Level Estimated
Mon 04:55:00 AM 21.7969 -74.1088 307° West  Level Estimated
Mon 04:56:00 AM 21.8683 -74.2130 306° West  Level Estimated
Mon 04:57:00 AM 21.9397 -74.3173 306° West  Level Estimated
Mon 04:58:00 AM 22.0110 -74.4216 306° West  Level Estimated
Mon 04:59:00 AM 22.0822 -74.5261 306° West  Level Estimated
Mon 05:00:00 AM 22.1534 -74.6307 306° West  Level Estimated
Mon 05:01:00 AM 22.2245 -74.7354 306° West  Level Estimated
Mon 05:02:00 AM 22.2956 -74.8402 306° West  Level Estimated
Mon 05:03:00 AM 22.3665 -74.9451 306° West  Level Estimated
Mon 05:04:00 AM 22.4374 -75.0501 306° West  Level Estimated
Mon 05:05:00 AM 22.5083 -75.1552 306° West  Level Estimated
Mon 05:06:00 AM 22.5790 -75.2604 306° West  Level Estimated
Mon 05:07:00 AM 22.6497 -75.3658 306° West  Level Estimated
Mon 05:08:00 AM 22.7204 -75.4712 306° West  Level Estimated
Mon 05:09:00 AM 22.7909 -75.5768 306° West  Level Estimated
Mon 05:10:00 AM 22.8614 -75.6824 306° West  Level Estimated
Mon 05:11:00 AM 22.9318 -75.7882 306° West  Level Estimated
Mon 05:12:00 AM 23.0022 -75.8941 306° West  Level Estimated
Mon 05:13:00 AM 23.0725 -76.0001 306° West  Level Estimated
Mon 05:14:00 AM 23.1427 -76.1062 306° West  Level Estimated
Mon 05:15:00 AM 23.2128 -76.2124 306° West  Level Estimated
Mon 05:16:00 AM 23.2829 -76.3187 306° West  Level Estimated
Mon 05:17:00 AM 23.3529 -76.4251 306° West  Level Estimated
Mon 05:18:00 AM 23.4228 -76.5317 306° West  Level Estimated
Mon 05:19:00 AM 23.4926 -76.6382 306° West  Level Estimated
Mon 05:20:00 AM 23.5623 -76.7448 306° West  Level Estimated
Mon 05:21:00 AM 23.6319 -76.8516 305° West  Level Estimated
Mon 05:22:00 AM 23.7014 -76.9585 305° West  Level Estimated
Mon 05:23:00 AM 23.7709 -77.0654 305° West  Level Estimated
Mon 05:24:00 AM 23.8403 -77.1725 305° West  Level Estimated
Mon 05:25:00 AM 23.9096 -77.2797 305° West  Level Estimated
Mon 05:26:00 AM 23.9789 -77.3871 305° West  Level Estimated
Mon 05:27:00 AM 24.0481 -77.4945 305° West  Level Estimated
Mon 05:28:00 AM 24.1172 -77.6021 305° West  Level Estimated
Mon 05:29:00 AM 24.1862 -77.7097 305° West  Level Estimated
Mon 05:30:00 AM 24.2551 -77.8175 305° West  Level Estimated
Mon 05:31:00 AM 24.3240 -77.9255 305° West  Level Estimated
Mon 05:32:00 AM 24.3928 -78.0335 305° West  Level Estimated
Mon 05:33:00 AM 24.4615 -78.1416 305° West  Level Estimated
Mon 05:34:00 AM 24.5302 -78.2499 305° West  Level Estimated
Mon 05:35:00 AM 24.5988 -78.3583 305° West  Level Estimated
Mon 05:36:00 AM 24.6673 -78.4668 305° West  Level Estimated
Mon 05:37:00 AM 24.7357 -78.5754 305° West  Level Estimated
Mon 05:38:00 AM 24.8040 -78.6841 305° West  Level Estimated
Mon 05:39:00 AM 24.8723 -78.7930 305° West  Level Estimated
Mon 05:40:00 AM 24.9404 -78.9019 305° West  Level Estimated
Mon 05:41:00 AM 25.0085 -79.0110 305° West  Level Estimated
Mon 05:42:00 AM 25.0766 -79.1203 305° West  Level Estimated
Mon 05:43:00 AM 25.1445 -79.2296 304° West  Level Estimated
Mon 05:44:00 AM 25.2124 -79.3391 304° West  Level Estimated
Mon 05:45:00 AM 25.2801 -79.4486 304° West  Level Estimated
Mon 05:46:00 AM 25.3478 -79.5584 304° West  Level Estimated
Mon 05:47:00 AM 25.4154 -79.6682 304° West  Level Estimated
Mon 05:48:00 AM 25.4830 -79.7781 304° West  Level Estimated
Mon 05:49:00 AM 25.5504 -79.8882 304° West  Level Estimated
Mon 05:50:00 AM 25.6178 -79.9984 304° West  Level Estimated
Mon 05:51:00 AM 25.6851 -80.1087 304° West  Level Estimated
Mon 05:52:00 AM 25.7523 -80.2192 304° West  Level Estimated
Mon 05:53:00 AM 25.7954 -80.2901 304° West  Level Estimated
Mon 05:54:00 AM 25.7954 -80.2901 318° Northwest  Level Estimated
Mon 05:55:00 AM 25.7954 -80.2901 318° Northwest  Level Estimated
Mon 05:56:00 AM 25.7954 -80.2901 318° Northwest  Level Estimated
Mon 05:57:00 AM 25.7954 -80.2901 318° Northwest  Level Estimated
Mon 05:58:00 AM 25.7954 -80.2901 318° Northwest  Level Estimated
Mon 05:59:00 AM 25.7954 -80.2901 318° Northwest  Level Estimated

Login

Don't have an account? Register now (free) for customized features, flight alerts, and more!